sensor_id;sensor_type;location;lat;lon;timestamp;pressure;altitude;pressure_sealevel;temperature;humidity
68380;BME280;57711;53.196;19.638;2023-03-19T00:02:08;100206.77;;;7.09;53.02
68380;BME280;57711;53.196;19.638;2023-03-19T00:04:44;100209.95;;;7.10;53.03
68380;BME280;57711;53.196;19.638;2023-03-19T00:07:13;100210.11;;;7.10;53.01
68380;BME280;57711;53.196;19.638;2023-03-19T00:09:41;100213.69;;;7.10;52.99
68380;BME280;57711;53.196;19.638;2023-03-19T00:12:09;100212.88;;;7.09;53.08
68380;BME280;57711;53.196;19.638;2023-03-19T00:14:37;100215.81;;;7.09;53.00
68380;BME280;57711;53.196;19.638;2023-03-19T00:17:04;100215.19;;;7.07;52.94
68380;BME280;57711;53.196;19.638;2023-03-19T00:19:32;100217.92;;;7.07;53.15
68380;BME280;57711;53.196;19.638;2023-03-19T00:21:59;100217.43;;;7.06;52.99
68380;BME280;57711;53.196;19.638;2023-03-19T00:24:27;100218.53;;;7.06;53.12
68380;BME280;57711;53.196;19.638;2023-03-19T00:26:54;100216.58;;;7.03;52.87
68380;BME280;57711;53.196;19.638;2023-03-19T00:29:22;100218.51;;;7.02;53.04
68380;BME280;57711;53.196;19.638;2023-03-19T00:31:49;100214.54;;;6.99;53.07
68380;BME280;57711;53.196;19.638;2023-03-19T00:34:17;100215.58;;;6.97;53.00
68380;BME280;57711;53.196;19.638;2023-03-19T00:36:45;100214.80;;;6.96;53.00
68380;BME280;57711;53.196;19.638;2023-03-19T00:39:12;100212.79;;;6.94;52.99
68380;BME280;57711;53.196;19.638;2023-03-19T00:41:40;100216.48;;;6.92;53.03
68380;BME280;57711;53.196;19.638;2023-03-19T00:44:07;100219.14;;;6.91;52.87
68380;BME280;57711;53.196;19.638;2023-03-19T00:46:34;100217.71;;;6.88;52.88
68380;BME280;57711;53.196;19.638;2023-03-19T00:49:03;100218.66;;;6.85;52.91
68380;BME280;57711;53.196;19.638;2023-03-19T00:51:30;100220.04;;;6.84;53.11
68380;BME280;57711;53.196;19.638;2023-03-19T00:53:57;100223.16;;;6.83;52.96
68380;BME280;57711;53.196;19.638;2023-03-19T00:56:24;100220.09;;;6.80;53.03
68380;BME280;57711;53.196;19.638;2023-03-19T00:58:52;100223.54;;;6.79;52.95
68380;BME280;57711;53.196;19.638;2023-03-19T01:01:19;100223.22;;;6.79;53.05
68380;BME280;57711;53.196;19.638;2023-03-19T01:03:46;100223.44;;;6.79;53.01
68380;BME280;57711;53.196;19.638;2023-03-19T01:06:13;100224.56;;;6.78;53.28
68380;BME280;57711;53.196;19.638;2023-03-19T01:08:41;100226.20;;;6.78;53.15
68380;BME280;57711;53.196;19.638;2023-03-19T01:11:11;100227.59;;;6.76;53.09
68380;BME280;57711;53.196;19.638;2023-03-19T01:13:40;100230.33;;;6.75;53.10
68380;BME280;57711;53.196;19.638;2023-03-19T01:16:08;100226.08;;;6.74;53.07
68380;BME280;57711;53.196;19.638;2023-03-19T01:18:35;100227.65;;;6.75;53.27
68380;BME280;57711;53.196;19.638;2023-03-19T01:21:04;100230.62;;;6.74;53.08
68380;BME280;57711;53.196;19.638;2023-03-19T01:23:32;100230.14;;;6.73;53.08
68380;BME280;57711;53.196;19.638;2023-03-19T01:26:00;100232.90;;;6.72;53.18
68380;BME280;57711;53.196;19.638;2023-03-19T01:28:28;100231.83;;;6.72;53.07
68380;BME280;57711;53.196;19.638;2023-03-19T01:31:00;100226.17;;;6.71;53.28
68380;BME280;57711;53.196;19.638;2023-03-19T01:33:50;100222.59;;;6.71;53.17
68380;BME280;57711;53.196;19.638;2023-03-19T01:36:31;100220.64;;;6.70;53.21
68380;BME280;57711;53.196;19.638;2023-03-19T01:39:01;100219.98;;;6.70;53.15
68380;BME280;57711;53.196;19.638;2023-03-19T01:41:28;100217.63;;;6.70;53.02
68380;BME280;57711;53.196;19.638;2023-03-19T01:44:02;100219.88;;;6.69;53.18
68380;BME280;57711;53.196;19.638;2023-03-19T01:47:00;100215.58;;;6.66;52.98
68380;BME280;57711;53.196;19.638;2023-03-19T01:49:37;100211.45;;;6.66;53.06
68380;BME280;57711;53.196;19.638;2023-03-19T01:52:19;100213.61;;;6.66;53.19
68380;BME280;57711;53.196;19.638;2023-03-19T01:54:57;100213.45;;;6.66;53.22
68380;BME280;57711;53.196;19.638;2023-03-19T01:57:48;100211.01;;;6.65;53.13
68380;BME280;57711;53.196;19.638;2023-03-19T02:00:44;100215.45;;;6.63;53.21
68380;BME280;57711;53.196;19.638;2023-03-19T02:03:11;100212.54;;;6.61;53.25
68380;BME280;57711;53.196;19.638;2023-03-19T02:05:43;100212.96;;;6.60;53.29
68380;BME280;57711;53.196;19.638;2023-03-19T02:08:15;100211.91;;;6.60;53.21
68380;BME280;57711;53.196;19.638;2023-03-19T02:10:45;100210.77;;;6.58;53.14
68380;BME280;57711;53.196;19.638;2023-03-19T02:13:14;100210.21;;;6.56;53.14
68380;BME280;57711;53.196;19.638;2023-03-19T02:15:41;100211.97;;;6.54;53.27
68380;BME280;57711;53.196;19.638;2023-03-19T02:18:09;100210.52;;;6.54;53.39
68380;BME280;57711;53.196;19.638;2023-03-19T02:20:43;100209.86;;;6.53;53.22
68380;BME280;57711;53.196;19.638;2023-03-19T02:26:17;100206.77;;;6.56;53.17
68380;BME280;57711;53.196;19.638;2023-03-19T02:28:48;100210.09;;;6.60;53.18
68380;BME280;57711;53.196;19.638;2023-03-19T02:31:20;100210.77;;;6.63;53.31
68380;BME280;57711;53.196;19.638;2023-03-19T02:33:58;100213.61;;;6.66;53.26
68380;BME280;57711;53.196;19.638;2023-03-19T02:36:32;100214.75;;;6.68;53.34
68380;BME280;57711;53.196;19.638;2023-03-19T02:39:02;100214.85;;;6.68;53.21
68380;BME280;57711;53.196;19.638;2023-03-19T02:41:30;100214.34;;;6.70;53.33
68380;BME280;57711;53.196;19.638;2023-03-19T02:44:00;100212.41;;;6.70;53.40
68380;BME280;57711;53.196;19.638;2023-03-19T02:46:30;100218.36;;;6.70;53.23
68380;BME280;57711;53.196;19.638;2023-03-19T02:48:57;100224.76;;;6.68;53.42
68380;BME280;57711;53.196;19.638;2023-03-19T02:51:24;100224.69;;;6.67;53.39
68380;BME280;57711;53.196;19.638;2023-03-19T02:53:52;100222.42;;;6.66;53.51
68380;BME280;57711;53.196;19.638;2023-03-19T02:56:19;100224.33;;;6.64;53.49
68380;BME280;57711;53.196;19.638;2023-03-19T02:58:46;100221.78;;;6.62;53.54
68380;BME280;57711;53.196;19.638;2023-03-19T03:01:13;100224.84;;;6.60;53.48
68380;BME280;57711;53.196;19.638;2023-03-19T03:03:41;100227.34;;;6.57;53.46
68380;BME280;57711;53.196;19.638;2023-03-19T03:06:08;100227.20;;;6.54;53.59
68380;BME280;57711;53.196;19.638;2023-03-19T03:08:36;100226.88;;;6.51;53.66
68380;BME280;57711;53.196;19.638;2023-03-19T03:11:04;100228.13;;;6.49;53.54
68380;BME280;57711;53.196;19.638;2023-03-19T03:13:31;100232.50;;;6.46;53.66
68380;BME280;57711;53.196;19.638;2023-03-19T03:15:59;100231.97;;;6.43;53.57
68380;BME280;57711;53.196;19.638;2023-03-19T03:18:27;100231.73;;;6.39;53.62
68380;BME280;57711;53.196;19.638;2023-03-19T03:20:54;100232.70;;;6.35;53.61
68380;BME280;57711;53.196;19.638;2023-03-19T03:23:22;100233.63;;;6.32;53.66
68380;BME280;57711;53.196;19.638;2023-03-19T03:25:50;100233.94;;;6.31;53.84
68380;BME280;57711;53.196;19.638;2023-03-19T03:28:18;100232.69;;;6.28;53.73
68380;BME280;57711;53.196;19.638;2023-03-19T03:30:45;100234.11;;;6.26;53.72
68380;BME280;57711;53.196;19.638;2023-03-19T03:33:13;100232.35;;;6.22;53.64
68380;BME280;57711;53.196;19.638;2023-03-19T03:35:41;100233.66;;;6.22;53.66
68380;BME280;57711;53.196;19.638;2023-03-19T03:38:09;100236.18;;;6.22;53.61
68380;BME280;57711;53.196;19.638;2023-03-19T03:40:37;100238.10;;;6.23;53.63
68380;BME280;57711;53.196;19.638;2023-03-19T03:43:04;100237.50;;;6.23;53.63
68380;BME280;57711;53.196;19.638;2023-03-19T03:45:33;100234.85;;;6.25;53.73
68380;BME280;57711;53.196;19.638;2023-03-19T03:48:00;100235.27;;;6.27;53.70
68380;BME280;57711;53.196;19.638;2023-03-19T03:50:28;100233.69;;;6.27;53.71
68380;BME280;57711;53.196;19.638;2023-03-19T03:52:57;100232.17;;;6.25;53.71
68380;BME280;57711;53.196;19.638;2023-03-19T03:55:25;100232.55;;;6.25;53.75
68380;BME280;57711;53.196;19.638;2023-03-19T03:57:52;100231.68;;;6.24;53.79
68380;BME280;57711;53.196;19.638;2023-03-19T04:00:19;100229.74;;;6.24;53.79
68380;BME280;57711;53.196;19.638;2023-03-19T04:02:46;100227.85;;;6.23;53.91
68380;BME280;57711;53.196;19.638;2023-03-19T04:05:15;100228.98;;;6.22;53.81
68380;BME280;57711;53.196;19.638;2023-03-19T04:07:43;100224.17;;;6.22;54.03
68380;BME280;57711;53.196;19.638;2023-03-19T04:10:10;100220.52;;;6.20;53.85
68380;BME280;57711;53.196;19.638;2023-03-19T04:12:38;100218.54;;;6.18;53.97
68380;BME280;57711;53.196;19.638;2023-03-19T04:15:08;100222.15;;;6.17;53.99
68380;BME280;57711;53.196;19.638;2023-03-19T04:17:38;100227.09;;;6.14;53.93
68380;BME280;57711;53.196;19.638;2023-03-19T04:20:07;100232.20;;;6.12;53.98
68380;BME280;57711;53.196;19.638;2023-03-19T04:22:35;100232.02;;;6.10;53.94
68380;BME280;57711;53.196;19.638;2023-03-19T04:25:02;100233.12;;;6.07;53.94
68380;BME280;57711;53.196;19.638;2023-03-19T04:27:31;100237.52;;;6.05;54.02
68380;BME280;57711;53.196;19.638;2023-03-19T04:29:58;100235.07;;;6.04;54.14
68380;BME280;57711;53.196;19.638;2023-03-19T04:32:27;100236.55;;;6.04;53.87
68380;BME280;57711;53.196;19.638;2023-03-19T04:34:54;100239.59;;;6.01;53.97
68380;BME280;57711;53.196;19.638;2023-03-19T04:37:22;100241.02;;;6.02;54.05
68380;BME280;57711;53.196;19.638;2023-03-19T04:39:50;100240.17;;;6.03;54.12
68380;BME280;57711;53.196;19.638;2023-03-19T04:42:17;100235.70;;;6.06;54.00
68380;BME280;57711;53.196;19.638;2023-03-19T04:44:51;100231.46;;;6.08;54.05
68380;BME280;57711;53.196;19.638;2023-03-19T04:47:19;100232.59;;;6.09;53.91
68380;BME280;57711;53.196;19.638;2023-03-19T04:49:52;100230.48;;;6.12;53.99
68380;BME280;57711;53.196;19.638;2023-03-19T04:52:21;100228.11;;;6.12;54.00
68380;BME280;57711;53.196;19.638;2023-03-19T04:54:48;100228.41;;;6.10;54.01
68380;BME280;57711;53.196;19.638;2023-03-19T04:57:15;100227.83;;;6.08;53.94
68380;BME280;57711;53.196;19.638;2023-03-19T04:59:43;100230.21;;;6.04;53.99
68380;BME280;57711;53.196;19.638;2023-03-19T05:02:12;100230.77;;;6.02;54.01
68380;BME280;57711;53.196;19.638;2023-03-19T05:04:40;100232.46;;;6.01;54.09
68380;BME280;57711;53.196;19.638;2023-03-19T05:07:11;100229.02;;;5.99;53.95
68380;BME280;57711;53.196;19.638;2023-03-19T05:09:39;100228.14;;;5.98;54.13
68380;BME280;57711;53.196;19.638;2023-03-19T05:12:09;100228.88;;;6.01;54.17
68380;BME280;57711;53.196;19.638;2023-03-19T05:14:41;100226.55;;;6.01;54.03
68380;BME280;57711;53.196;19.638;2023-03-19T05:17:16;100223.62;;;5.99;54.20
68380;BME280;57711;53.196;19.638;2023-03-19T05:20:02;100228.44;;;5.99;54.26
68380;BME280;57711;53.196;19.638;2023-03-19T05:22:31;100227.12;;;6.00;54.26
68380;BME280;57711;53.196;19.638;2023-03-19T05:24:59;100227.64;;;6.00;54.33
68380;BME280;57711;53.196;19.638;2023-03-19T05:27:26;100225.63;;;6.01;54.33
68380;BME280;57711;53.196;19.638;2023-03-19T05:30:06;100224.31;;;6.01;54.32
68380;BME280;57711;53.196;19.638;2023-03-19T05:32:37;100230.11;;;6.03;54.34
68380;BME280;57711;53.196;19.638;2023-03-19T05:35:11;100232.46;;;6.03;54.34
68380;BME280;57711;53.196;19.638;2023-03-19T05:37:39;100238.96;;;6.02;54.35
68380;BME280;57711;53.196;19.638;2023-03-19T05:40:06;100243.09;;;6.03;54.24
68380;BME280;57711;53.196;19.638;2023-03-19T05:42:34;100248.77;;;6.04;54.33
68380;BME280;57711;53.196;19.638;2023-03-19T05:45:01;100247.27;;;6.08;54.30
68380;BME280;57711;53.196;19.638;2023-03-19T05:47:47;100250.31;;;6.13;54.32
68380;BME280;57711;53.196;19.638;2023-03-19T05:50:17;100250.14;;;6.17;54.31
68380;BME280;57711;53.196;19.638;2023-03-19T05:53:02;100249.87;;;6.24;54.36
68380;BME280;57711;53.196;19.638;2023-03-19T05:55:31;100250.77;;;6.31;54.18
68380;BME280;57711;53.196;19.638;2023-03-19T05:58:03;100251.61;;;6.37;54.38
68380;BME280;57711;53.196;19.638;2023-03-19T06:00:31;100250.17;;;6.42;54.28
68380;BME280;57711;53.196;19.638;2023-03-19T06:02:58;100257.55;;;6.47;54.32
68380;BME280;57711;53.196;19.638;2023-03-19T06:05:35;100258.69;;;6.51;54.38
68380;BME280;57711;53.196;19.638;2023-03-19T06:08:21;100254.18;;;6.54;54.46
68380;BME280;57711;53.196;19.638;2023-03-19T06:11:12;100251.82;;;6.57;54.57
68380;BME280;57711;53.196;19.638;2023-03-19T06:13:40;100249.98;;;6.57;54.53
68380;BME280;57711;53.196;19.638;2023-03-19T06:16:13;100253.45;;;6.59;54.54
68380;BME280;57711;53.196;19.638;2023-03-19T06:18:47;100256.62;;;6.60;54.41
68380;BME280;57711;53.196;19.638;2023-03-19T06:21:14;100256.52;;;6.59;54.36
68380;BME280;57711;53.196;19.638;2023-03-19T06:23:43;100257.41;;;6.59;54.40
68380;BME280;57711;53.196;19.638;2023-03-19T06:26:12;100251.66;;;6.59;54.50
68380;BME280;57711;53.196;19.638;2023-03-19T06:28:59;100246.54;;;6.63;54.58
68380;BME280;57711;53.196;19.638;2023-03-19T06:31:27;100240.85;;;6.65;54.47
68380;BME280;57711;53.196;19.638;2023-03-19T06:34:01;100241.16;;;6.65;54.43
68380;BME280;57711;53.196;19.638;2023-03-19T06:36:47;100244.77;;;6.65;54.51
68380;BME280;57711;53.196;19.638;2023-03-19T06:39:17;100241.59;;;6.69;54.53
68380;BME280;57711;53.196;19.638;2023-03-19T06:41:44;100239.69;;;6.75;54.52
68380;BME280;57711;53.196;19.638;2023-03-19T06:44:15;100243.30;;;6.85;54.50
68380;BME280;57711;53.196;19.638;2023-03-19T06:46:42;100245.67;;;6.94;54.57
68380;BME280;57711;53.196;19.638;2023-03-19T06:49:09;100248.19;;;7.06;54.72
68380;BME280;57711;53.196;19.638;2023-03-19T06:51:36;100249.21;;;7.16;54.55
68380;BME280;57711;53.196;19.638;2023-03-19T06:54:04;100253.65;;;7.29;54.71
68380;BME280;57711;53.196;19.638;2023-03-19T06:56:31;100256.38;;;7.41;54.54
68380;BME280;57711;53.196;19.638;2023-03-19T06:58:58;100259.30;;;7.50;54.63
68380;BME280;57711;53.196;19.638;2023-03-19T07:01:25;100263.77;;;7.55;54.51
68380;BME280;57711;53.196;19.638;2023-03-19T07:03:52;100262.02;;;7.56;54.41
68380;BME280;57711;53.196;19.638;2023-03-19T07:06:20;100262.86;;;7.62;54.55
68380;BME280;57711;53.196;19.638;2023-03-19T07:08:47;100267.42;;;7.70;54.58
68380;BME280;57711;53.196;19.638;2023-03-19T07:11:14;100270.73;;;7.79;54.65
68380;BME280;57711;53.196;19.638;2023-03-19T07:13:42;100277.02;;;7.86;54.61
68380;BME280;57711;53.196;19.638;2023-03-19T07:16:09;100277.29;;;7.92;54.53
68380;BME280;57711;53.196;19.638;2023-03-19T07:18:37;100274.39;;;7.97;54.49
68380;BME280;57711;53.196;19.638;2023-03-19T07:21:04;100272.86;;;8.00;54.40
68380;BME280;57711;53.196;19.638;2023-03-19T07:23:31;100273.75;;;8.01;54.38
68380;BME280;57711;53.196;19.638;2023-03-19T07:25:59;100278.33;;;8.04;54.40
68380;BME280;57711;53.196;19.638;2023-03-19T07:28:26;100281.84;;;8.07;54.55
68380;BME280;57711;53.196;19.638;2023-03-19T07:30:53;100280.51;;;8.13;54.64
68380;BME280;57711;53.196;19.638;2023-03-19T07:33:21;100282.50;;;8.22;54.66
68380;BME280;57711;53.196;19.638;2023-03-19T07:35:48;100282.11;;;8.29;54.59
68380;BME280;57711;53.196;19.638;2023-03-19T07:38:15;100285.50;;;8.36;54.54
68380;BME280;57711;53.196;19.638;2023-03-19T07:40:43;100291.27;;;8.46;54.70
68380;BME280;57711;53.196;19.638;2023-03-19T07:43:26;100295.83;;;8.54;54.58
68380;BME280;57711;53.196;19.638;2023-03-19T07:45:53;100292.41;;;8.58;54.41
68380;BME280;57711;53.196;19.638;2023-03-19T07:48:21;100292.19;;;8.63;54.53
68380;BME280;57711;53.196;19.638;2023-03-19T07:50:51;100295.21;;;8.68;54.57
68380;BME280;57711;53.196;19.638;2023-03-19T07:53:20;100302.91;;;8.72;54.51
68380;BME280;57711;53.196;19.638;2023-03-19T07:55:47;100297.40;;;8.73;54.56
68380;BME280;57711;53.196;19.638;2023-03-19T07:58:14;100294.66;;;8.75;54.40
68380;BME280;57711;53.196;19.638;2023-03-19T08:00:42;100294.29;;;8.78;54.58
68380;BME280;57711;53.196;19.638;2023-03-19T08:03:11;100293.85;;;8.81;54.56
68380;BME280;57711;53.196;19.638;2023-03-19T08:05:38;100294.77;;;8.85;54.60
68380;BME280;57711;53.196;19.638;2023-03-19T08:08:05;100294.23;;;8.87;54.46
68380;BME280;57711;53.196;19.638;2023-03-19T08:10:33;100294.09;;;8.89;54.49
68380;BME280;57711;53.196;19.638;2023-03-19T08:13:03;100297.81;;;8.92;54.31
68380;BME280;57711;53.196;19.638;2023-03-19T08:15:31;100292.05;;;8.94;54.48
68380;BME280;57711;53.196;19.638;2023-03-19T08:17:59;100288.47;;;9.03;54.43
68380;BME280;57711;53.196;19.638;2023-03-19T08:20:27;100289.40;;;9.16;54.53
68380;BME280;57711;53.196;19.638;2023-03-19T08:22:54;100283.56;;;9.31;54.75
68380;BME280;57711;53.196;19.638;2023-03-19T08:25:23;100278.76;;;9.52;54.66
68380;BME280;57711;53.196;19.638;2023-03-19T08:27:50;100277.91;;;9.75;54.74
68380;BME280;57711;53.196;19.638;2023-03-19T08:30:17;100277.58;;;9.96;54.63
68380;BME280;57711;53.196;19.638;2023-03-19T08:32:45;100272.45;;;10.15;54.69
68380;BME280;57711;53.196;19.638;2023-03-19T08:35:12;100264.85;;;10.36;54.58
68380;BME280;57711;53.196;19.638;2023-03-19T08:37:39;100262.53;;;10.58;54.75
68380;BME280;57711;53.196;19.638;2023-03-19T08:40:07;100264.04;;;10.80;54.54
68380;BME280;57711;53.196;19.638;2023-03-19T08:42:35;100263.62;;;11.01;54.72
68380;BME280;57711;53.196;19.638;2023-03-19T08:45:12;100260.98;;;11.22;54.42
68380;BME280;57711;53.196;19.638;2023-03-19T08:47:41;100260.12;;;11.39;54.46
68380;BME280;57711;53.196;19.638;2023-03-19T08:50:09;100260.52;;;11.56;54.42
68380;BME280;57711;53.196;19.638;2023-03-19T08:52:36;100261.85;;;11.69;54.42
68380;BME280;57711;53.196;19.638;2023-03-19T08:55:04;100261.27;;;11.81;54.36
68380;BME280;57711;53.196;19.638;2023-03-19T08:57:31;100260.36;;;11.93;54.24
68380;BME280;57711;53.196;19.638;2023-03-19T08:59:58;100257.61;;;12.01;54.41
68380;BME280;57711;53.196;19.638;2023-03-19T09:02:25;100255.85;;;12.06;54.29
68380;BME280;57711;53.196;19.638;2023-03-19T09:04:53;100257.81;;;12.08;54.33
68380;BME280;57711;53.196;19.638;2023-03-19T09:07:20;100258.98;;;12.11;54.22
68380;BME280;57711;53.196;19.638;2023-03-19T09:09:48;100257.13;;;12.12;54.30
68380;BME280;57711;53.196;19.638;2023-03-19T09:12:16;100258.08;;;12.12;54.35
68380;BME280;57711;53.196;19.638;2023-03-19T09:14:43;100256.69;;;12.13;54.45
68380;BME280;57711;53.196;19.638;2023-03-19T09:17:11;100259.45;;;12.20;54.37
68380;BME280;57711;53.196;19.638;2023-03-19T09:19:39;100253.60;;;12.31;54.46
68380;BME280;57711;53.196;19.638;2023-03-19T09:22:07;100252.17;;;12.44;54.31
68380;BME280;57711;53.196;19.638;2023-03-19T09:24:34;100253.67;;;12.61;54.52
68380;BME280;57711;53.196;19.638;2023-03-19T09:27:05;100256.48;;;12.75;54.39
68380;BME280;57711;53.196;19.638;2023-03-19T09:29:32;100251.81;;;12.89;54.36
68380;BME280;57711;53.196;19.638;2023-03-19T09:31:59;100250.88;;;13.00;54.41
68380;BME280;57711;53.196;19.638;2023-03-19T09:34:27;100249.48;;;13.09;54.25
68380;BME280;57711;53.196;19.638;2023-03-19T09:36:54;100248.94;;;13.16;54.27
68380;BME280;57711;53.196;19.638;2023-03-19T09:39:21;100250.75;;;13.23;54.21
68380;BME280;57711;53.196;19.638;2023-03-19T09:45:01;100244.60;;;13.45;54.31
68380;BME280;57711;53.196;19.638;2023-03-19T09:47:32;100247.11;;;13.59;54.29
68380;BME280;57711;53.196;19.638;2023-03-19T09:50:02;100250.61;;;13.75;54.16
68380;BME280;57711;53.196;19.638;2023-03-19T09:55:11;100251.08;;;13.95;53.97
68380;BME280;57711;53.196;19.638;2023-03-19T09:57:40;100243.42;;;14.02;53.95
68380;BME280;57711;53.196;19.638;2023-03-19T10:02:46;100238.84;;;14.05;54.06
68380;BME280;57711;53.196;19.638;2023-03-19T10:16:25;100240.66;;;14.32;53.93
68380;BME280;57711;53.196;19.638;2023-03-19T10:18:57;100239.79;;;14.39;53.89
68380;BME280;57711;53.196;19.638;2023-03-19T10:26:37;100229.63;;;14.46;53.80
68380;BME280;57711;53.196;19.638;2023-03-19T10:34:36;100222.34;;;14.83;53.68
68380;BME280;57711;53.196;19.638;2023-03-19T10:37:19;100222.64;;;14.82;53.61
68380;BME280;57711;53.196;19.638;2023-03-19T10:39:51;100219.85;;;14.79;53.49
68380;BME280;57711;53.196;19.638;2023-03-19T10:47:51;100215.85;;;14.83;53.48
68380;BME280;57711;53.196;19.638;2023-03-19T10:50:22;100218.15;;;14.90;53.49
68380;BME280;57711;53.196;19.638;2023-03-19T10:55:33;100216.45;;;14.94;53.33
68380;BME280;57711;53.196;19.638;2023-03-19T10:58:19;100215.95;;;14.98;53.51
68380;BME280;57711;53.196;19.638;2023-03-19T11:00:48;100216.80;;;15.06;53.47
68380;BME280;57711;53.196;19.638;2023-03-19T11:03:31;100212.84;;;15.12;53.32
68380;BME280;57711;53.196;19.638;2023-03-19T11:06:21;100211.97;;;15.19;53.41
68380;BME280;57711;53.196;19.638;2023-03-19T11:09:13;100210.81;;;15.21;53.13
68380;BME280;57711;53.196;19.638;2023-03-19T11:11:47;100210.98;;;15.21;53.10
68380;BME280;57711;53.196;19.638;2023-03-19T11:14:19;100213.41;;;15.20;53.26
68380;BME280;57711;53.196;19.638;2023-03-19T11:16:57;100206.98;;;15.19;53.08
68380;BME280;57711;53.196;19.638;2023-03-19T11:19:39;100203.00;;;15.21;53.04
68380;BME280;57711;53.196;19.638;2023-03-19T11:24:41;100197.77;;;15.35;53.03
68380;BME280;57711;53.196;19.638;2023-03-19T11:27:10;100199.25;;;15.40;53.08
68380;BME280;57711;53.196;19.638;2023-03-19T11:29:42;100198.92;;;15.43;52.98
68380;BME280;57711;53.196;19.638;2023-03-19T11:32:32;100196.93;;;15.44;52.86
68380;BME280;57711;53.196;19.638;2023-03-19T11:35:10;100198.13;;;15.43;52.91
68380;BME280;57711;53.196;19.638;2023-03-19T11:38:01;100193.00;;;15.45;52.72
68380;BME280;57711;53.196;19.638;2023-03-19T11:46:22;100181.73;;;15.73;52.93
68380;BME280;57711;53.196;19.638;2023-03-19T11:51:49;100177.98;;;15.80;52.82
68380;BME280;57711;53.196;19.638;2023-03-19T12:10:26;100178.33;;;15.80;52.41
68380;BME280;57711;53.196;19.638;2023-03-19T12:13:10;100181.08;;;15.80;52.30
68380;BME280;57711;53.196;19.638;2023-03-19T12:23:50;100178.34;;;15.83;52.35
68380;BME280;57711;53.196;19.638;2023-03-19T12:32:08;100174.08;;;15.79;52.05
68380;BME280;57711;53.196;19.638;2023-03-19T12:35:00;100173.84;;;15.75;52.04
68380;BME280;57711;53.196;19.638;2023-03-19T12:37:34;100171.39;;;15.74;51.97
68380;BME280;57711;53.196;19.638;2023-03-19T12:41:10;100169.88;;;15.73;51.97
68380;BME280;57711;53.196;19.638;2023-03-19T12:43:28;100170.77;;;15.71;52.04
68380;BME280;57711;53.196;19.638;2023-03-19T12:46:04;100168.70;;;15.69;52.03
68380;BME280;57711;53.196;19.638;2023-03-19T12:48:41;100165.05;;;15.65;51.96
68380;BME280;57711;53.196;19.638;2023-03-19T12:51:11;100165.97;;;15.62;51.86
68380;BME280;57711;53.196;19.638;2023-03-19T12:53:48;100166.04;;;15.60;51.84
68380;BME280;57711;53.196;19.638;2023-03-19T12:56:23;100167.61;;;15.57;51.65
68380;BME280;57711;53.196;19.638;2023-03-19T12:59:02;100158.32;;;15.51;51.80
68380;BME280;57711;53.196;19.638;2023-03-19T13:01:48;100157.09;;;15.42;51.82
68380;BME280;57711;53.196;19.638;2023-03-19T13:04:20;100157.36;;;15.35;51.90
68380;BME280;57711;53.196;19.638;2023-03-19T13:07:02;100153.95;;;15.28;51.71
68380;BME280;57711;53.196;19.638;2023-03-19T13:09:43;100154.77;;;15.23;51.58
68380;BME280;57711;53.196;19.638;2023-03-19T13:12:19;100149.61;;;15.16;51.58
68380;BME280;57711;53.196;19.638;2023-03-19T13:23:01;100154.25;;;14.88;51.48
68380;BME280;57711;53.196;19.638;2023-03-19T13:25:40;100148.46;;;14.81;51.52
68380;BME280;57711;53.196;19.638;2023-03-19T13:28:10;100145.79;;;14.74;51.36
68380;BME280;57711;53.196;19.638;2023-03-19T13:30:38;100141.03;;;14.69;51.29
68380;BME280;57711;53.196;19.638;2023-03-19T13:33:12;100140.73;;;14.64;51.42
68380;BME280;57711;53.196;19.638;2023-03-19T13:35:48;100139.83;;;14.58;51.50
68380;BME280;57711;53.196;19.638;2023-03-19T13:38:23;100139.29;;;14.53;51.34
68380;BME280;57711;53.196;19.638;2023-03-19T13:40:56;100143.09;;;14.48;51.35
68380;BME280;57711;53.196;19.638;2023-03-19T13:48:50;100140.09;;;14.39;51.19
68380;BME280;57711;53.196;19.638;2023-03-19T13:59:24;100142.83;;;14.27;51.07
68380;BME280;57711;53.196;19.638;2023-03-19T14:01:55;100137.74;;;14.25;51.03
68380;BME280;57711;53.196;19.638;2023-03-19T14:04:33;100136.86;;;14.23;51.07
68380;BME280;57711;53.196;19.638;2023-03-19T14:07:24;100140.91;;;14.21;51.00
68380;BME280;57711;53.196;19.638;2023-03-19T14:12:37;100140.20;;;14.15;50.99
68380;BME280;57711;53.196;19.638;2023-03-19T14:17:37;100136.30;;;14.08;50.89
68380;BME280;57711;53.196;19.638;2023-03-19T14:25:20;100136.42;;;14.02;50.88
68380;BME280;57711;53.196;19.638;2023-03-19T14:27:50;100131.39;;;13.99;50.83
68380;BME280;57711;53.196;19.638;2023-03-19T14:30:39;100133.23;;;13.97;50.84
68380;BME280;57711;53.196;19.638;2023-03-19T14:33:19;100132.13;;;13.95;50.95
68380;BME280;57711;53.196;19.638;2023-03-19T14:35:49;100133.55;;;13.94;50.94
68380;BME280;57711;53.196;19.638;2023-03-19T14:38:33;100131.73;;;13.92;50.86
68380;BME280;57711;53.196;19.638;2023-03-19T14:41:03;100127.41;;;13.91;50.75
68380;BME280;57711;53.196;19.638;2023-03-19T14:50:15;100129.67;;;13.85;50.61
68380;BME280;57711;53.196;19.638;2023-03-19T14:52:39;100129.26;;;13.82;50.76
68380;BME280;57711;53.196;19.638;2023-03-19T14:55:12;100128.52;;;13.78;50.86
68380;BME280;57711;53.196;19.638;2023-03-19T14:57:40;100126.11;;;13.75;50.85
68380;BME280;57711;53.196;19.638;2023-03-19T15:00:13;100125.86;;;13.72;50.67
68380;BME280;57711;53.196;19.638;2023-03-19T15:05:27;100124.84;;;13.67;50.84
68380;BME280;57711;53.196;19.638;2023-03-19T15:08:00;100123.88;;;13.64;50.83
68380;BME280;57711;53.196;19.638;2023-03-19T15:10:35;100121.48;;;13.60;50.77